Ana Sayfa
METAR-TAF:

METAR-TAF

Havaalanları :

Bozeman, Montana, Amerika Birleşik Devletleri

Enlem: 45-47-17N, Boylam: 111-09-39W, yükseklik: 1364 m

Güncel hava durumu gözlemi

Rapor saat 22:56 UTC de 23 dakika önce yapıldı.
Rüzgar kuzeydan 7 kt
Sıcaklık 23°C
Nem 41%
Basınç 1012 hPa
Görüş mesafesi: 16.1 km
Açık gökyüzü

METAR: KBZN 172256Z 01007KT 10SM CLR 23/09 A2988 RMK AO2 SLP087 T02280094

Saat: 17:19 (23:19 UTC)

Tahmin

Rapor saat 17:46 UTC de 5 saat ve 33 dakika önce yapıldı.
Ayın 17'si saat 18 UTC'den ayın 18'si saat 24 UTC'ye kadar geçerli Tahmin
Rüzgar değişken yönden 5 kt
Görüş mesafesi: 10 km
8000 ft yükseklikte parçalı bulutlu
20000 ft yükseklikte parçalı çok bulutlu
Ayın 18'si saat 1900 UTC'den
Rüzgar batıdan 10 kt ve 20 kt'a kadar ani rüzgarlar
Görüş mesafesi: 10 km
10000 ft yükseklikte az bulutlu

TAF: KBZN 171746Z 1718/1824 VRB05KT P6SM SCT080 BKN200 FM181900 27010G20KT P6SM FEW100

4.000'den fazla havaalanı için hava durumu gözlemleri ve tahminleri (METAR ve TAF raporları).

Kullanılabilir istasyonlar harita üzerinde sarı ve kırmızı noktalarla gösterilir.

İstasyonun adını görmek için fareyi noktanın üzerinde gezdirin.

Sonrasında hava gözlem ve tahminlerini görmek için tıklayın.

Haritayı değiştirmek için: yaklaştırmak için siyah artı işaretli yeşil düğmeye ve uzaklaştırmak için de eksi işaretli düğmeye hızla tıklayın; bitişik haritalar için yeşil okları kullanın.


METAR-TAF: